sensor_id;sensor_type;location;lat;lon;timestamp;P1;durP1;ratioP1;P2;durP2;ratioP2
23119;SDS011;11729;50.836;4.330;2023-06-14T00:01:50;13.38;;;8.98;;
23119;SDS011;11729;50.836;4.330;2023-06-14T00:04:16;10.35;;;8.70;;
23119;SDS011;11729;50.836;4.330;2023-06-14T00:06:42;11.57;;;8.52;;
23119;SDS011;11729;50.836;4.330;2023-06-14T00:09:10;12.00;;;8.98;;
23119;SDS011;11729;50.836;4.330;2023-06-14T00:11:37;11.38;;;8.68;;
23119;SDS011;11729;50.836;4.330;2023-06-14T00:14:09;10.15;;;8.98;;
23119;SDS011;11729;50.836;4.330;2023-06-14T00:16:35;11.70;;;9.00;;
23119;SDS011;11729;50.836;4.330;2023-06-14T00:19:07;15.18;;;9.32;;
23119;SDS011;11729;50.836;4.330;2023-06-14T00:24:15;14.65;;;9.43;;
23119;SDS011;11729;50.836;4.330;2023-06-14T00:26:41;16.60;;;9.48;;
23119;SDS011;11729;50.836;4.330;2023-06-14T00:29:06;12.82;;;9.10;;
23119;SDS011;11729;50.836;4.330;2023-06-14T00:34:00;10.10;;;8.95;;
23119;SDS011;11729;50.836;4.330;2023-06-14T00:36:25;13.95;;;8.93;;
23119;SDS011;11729;50.836;4.330;2023-06-14T00:38:51;11.35;;;8.52;;
23119;SDS011;11729;50.836;4.330;2023-06-14T00:41:20;16.15;;;8.90;;
23119;SDS011;11729;50.836;4.330;2023-06-14T00:43:45;9.98;;;8.40;;
23119;SDS011;11729;50.836;4.330;2023-06-14T00:46:11;9.68;;;8.65;;
23119;SDS011;11729;50.836;4.330;2023-06-14T00:48:41;10.25;;;8.80;;
23119;SDS011;11729;50.836;4.330;2023-06-14T00:51:07;11.18;;;9.57;;
23119;SDS011;11729;50.836;4.330;2023-06-14T00:53:33;13.23;;;9.60;;
23119;SDS011;11729;50.836;4.330;2023-06-14T00:56:03;14.02;;;8.45;;
23119;SDS011;11729;50.836;4.330;2023-06-14T00:58:29;14.57;;;9.07;;
23119;SDS011;11729;50.836;4.330;2023-06-14T01:00:57;9.50;;;8.60;;
23119;SDS011;11729;50.836;4.330;2023-06-14T01:03:23;15.55;;;8.90;;
23119;SDS011;11729;50.836;4.330;2023-06-14T01:05:54;10.00;;;9.00;;
23119;SDS011;11729;50.836;4.330;2023-06-14T01:08:50;11.40;;;8.73;;
23119;SDS011;11729;50.836;4.330;2023-06-14T01:11:22;14.13;;;9.32;;
23119;SDS011;11729;50.836;4.330;2023-06-14T01:13:52;13.15;;;8.65;;
23119;SDS011;11729;50.836;4.330;2023-06-14T01:16:21;11.05;;;9.25;;
23119;SDS011;11729;50.836;4.330;2023-06-14T01:18:47;12.68;;;9.45;;
23119;SDS011;11729;50.836;4.330;2023-06-14T01:21:22;15.95;;;9.32;;
23119;SDS011;11729;50.836;4.330;2023-06-14T01:23:48;11.32;;;9.60;;
23119;SDS011;11729;50.836;4.330;2023-06-14T01:26:21;10.45;;;8.95;;
23119;SDS011;11729;50.836;4.330;2023-06-14T01:28:48;12.48;;;9.23;;
23119;SDS011;11729;50.836;4.330;2023-06-14T01:31:17;12.00;;;9.93;;
23119;SDS011;11729;50.836;4.330;2023-06-14T01:33:44;9.70;;;8.70;;
23119;SDS011;11729;50.836;4.330;2023-06-14T01:36:11;12.73;;;9.65;;
23119;SDS011;11729;50.836;4.330;2023-06-14T01:38:38;12.35;;;9.57;;
23119;SDS011;11729;50.836;4.330;2023-06-14T01:41:04;17.67;;;9.52;;
23119;SDS011;11729;50.836;4.330;2023-06-14T01:43:31;11.75;;;9.32;;
23119;SDS011;11729;50.836;4.330;2023-06-14T01:46:00;12.50;;;10.10;;
23119;SDS011;11729;50.836;4.330;2023-06-14T01:48:28;10.80;;;9.25;;
23119;SDS011;11729;50.836;4.330;2023-06-14T01:50:53;10.88;;;9.77;;
23119;SDS011;11729;50.836;4.330;2023-06-14T01:53:19;13.30;;;9.50;;
23119;SDS011;11729;50.836;4.330;2023-06-14T01:55:45;10.10;;;9.20;;
23119;SDS011;11729;50.836;4.330;2023-06-14T01:58:13;11.77;;;9.45;;
23119;SDS011;11729;50.836;4.330;2023-06-14T02:00:40;13.23;;;9.70;;
23119;SDS011;11729;50.836;4.330;2023-06-14T02:03:08;12.97;;;9.80;;
23119;SDS011;11729;50.836;4.330;2023-06-14T02:05:33;13.95;;;9.82;;
23119;SDS011;11729;50.836;4.330;2023-06-14T02:07:59;10.77;;;9.68;;
23119;SDS011;11729;50.836;4.330;2023-06-14T02:10:25;11.95;;;9.90;;
23119;SDS011;11729;50.836;4.330;2023-06-14T02:12:51;16.75;;;9.93;;
23119;SDS011;11729;50.836;4.330;2023-06-14T02:15:17;11.02;;;9.93;;
23119;SDS011;11729;50.836;4.330;2023-06-14T02:17:46;11.40;;;10.23;;
23119;SDS011;11729;50.836;4.330;2023-06-14T02:20:14;12.00;;;9.90;;
23119;SDS011;11729;50.836;4.330;2023-06-14T02:22:40;11.10;;;9.90;;
23119;SDS011;11729;50.836;4.330;2023-06-14T02:25:06;14.30;;;10.40;;
23119;SDS011;11729;50.836;4.330;2023-06-14T02:27:33;11.15;;;9.98;;
23119;SDS011;11729;50.836;4.330;2023-06-14T02:29:58;11.50;;;10.07;;
23119;SDS011;11729;50.836;4.330;2023-06-14T02:32:25;13.50;;;10.27;;
23119;SDS011;11729;50.836;4.330;2023-06-14T02:34:52;13.33;;;10.03;;
23119;SDS011;11729;50.836;4.330;2023-06-14T02:37:18;14.77;;;10.27;;
23119;SDS011;11729;50.836;4.330;2023-06-14T02:39:44;12.98;;;10.43;;
23119;SDS011;11729;50.836;4.330;2023-06-14T02:42:10;11.32;;;9.82;;
23119;SDS011;11729;50.836;4.330;2023-06-14T02:44:35;16.02;;;10.82;;
23119;SDS011;11729;50.836;4.330;2023-06-14T02:47:01;13.77;;;9.73;;
23119;SDS011;11729;50.836;4.330;2023-06-14T02:49:27;13.32;;;10.60;;
23119;SDS011;11729;50.836;4.330;2023-06-14T02:51:54;11.45;;;10.25;;
23119;SDS011;11729;50.836;4.330;2023-06-14T02:54:20;11.73;;;10.55;;
23119;SDS011;11729;50.836;4.330;2023-06-14T02:56:45;14.13;;;10.77;;
23119;SDS011;11729;50.836;4.330;2023-06-14T02:59:11;11.73;;;10.52;;
23119;SDS011;11729;50.836;4.330;2023-06-14T03:01:38;14.20;;;11.40;;
23119;SDS011;11729;50.836;4.330;2023-06-14T03:04:06;20.15;;;11.73;;
23119;SDS011;11729;50.836;4.330;2023-06-14T03:06:35;14.00;;;10.73;;
23119;SDS011;11729;50.836;4.330;2023-06-14T03:09:01;13.60;;;10.65;;
23119;SDS011;11729;50.836;4.330;2023-06-14T03:11:30;13.73;;;11.30;;
23119;SDS011;11729;50.836;4.330;2023-06-14T03:13:56;17.58;;;11.25;;
23119;SDS011;11729;50.836;4.330;2023-06-14T03:16:22;11.75;;;10.55;;
23119;SDS011;11729;50.836;4.330;2023-06-14T03:18:52;14.88;;;11.57;;
23119;SDS011;11729;50.836;4.330;2023-06-14T03:21:18;17.05;;;10.88;;
23119;SDS011;11729;50.836;4.330;2023-06-14T03:23:45;14.07;;;11.13;;
23119;SDS011;11729;50.836;4.330;2023-06-14T03:26:11;15.73;;;11.43;;
23119;SDS011;11729;50.836;4.330;2023-06-14T03:28:43;13.90;;;10.95;;
23119;SDS011;11729;50.836;4.330;2023-06-14T03:31:11;14.93;;;11.35;;
23119;SDS011;11729;50.836;4.330;2023-06-14T03:33:37;17.90;;;11.05;;
23119;SDS011;11729;50.836;4.330;2023-06-14T03:36:03;13.60;;;11.50;;
23119;SDS011;11729;50.836;4.330;2023-06-14T03:38:30;16.67;;;11.02;;
23119;SDS011;11729;50.836;4.330;2023-06-14T03:40:55;11.90;;;10.73;;
23119;SDS011;11729;50.836;4.330;2023-06-14T03:43:21;17.98;;;11.20;;
23119;SDS011;11729;50.836;4.330;2023-06-14T03:45:47;14.70;;;10.80;;
23119;SDS011;11729;50.836;4.330;2023-06-14T03:48:12;12.75;;;11.40;;
23119;SDS011;11729;50.836;4.330;2023-06-14T03:50:38;15.60;;;11.10;;
23119;SDS011;11729;50.836;4.330;2023-06-14T03:53:04;17.70;;;11.40;;
23119;SDS011;11729;50.836;4.330;2023-06-14T03:55:30;15.32;;;10.88;;
23119;SDS011;11729;50.836;4.330;2023-06-14T03:57:56;17.55;;;11.73;;
23119;SDS011;11729;50.836;4.330;2023-06-14T04:00:22;12.90;;;11.05;;
23119;SDS011;11729;50.836;4.330;2023-06-14T04:02:48;13.68;;;11.50;;
23119;SDS011;11729;50.836;4.330;2023-06-14T04:05:14;17.08;;;11.02;;
23119;SDS011;11729;50.836;4.330;2023-06-14T04:07:41;15.30;;;11.35;;
23119;SDS011;11729;50.836;4.330;2023-06-14T04:10:10;13.88;;;11.48;;
23119;SDS011;11729;50.836;4.330;2023-06-14T04:12:36;15.48;;;10.85;;
23119;SDS011;11729;50.836;4.330;2023-06-14T04:15:02;13.38;;;11.00;;
23119;SDS011;11729;50.836;4.330;2023-06-14T04:17:30;15.40;;;11.45;;
23119;SDS011;11729;50.836;4.330;2023-06-14T04:19:57;13.63;;;11.00;;
23119;SDS011;11729;50.836;4.330;2023-06-14T04:22:24;12.70;;;10.65;;
23119;SDS011;11729;50.836;4.330;2023-06-14T04:24:53;13.80;;;10.55;;
23119;SDS011;11729;50.836;4.330;2023-06-14T04:29:54;16.33;;;10.52;;
23119;SDS011;11729;50.836;4.330;2023-06-14T04:32:24;12.20;;;10.85;;
23119;SDS011;11729;50.836;4.330;2023-06-14T04:34:52;11.73;;;10.50;;
23119;SDS011;11729;50.836;4.330;2023-06-14T04:37:21;18.02;;;11.13;;
23119;SDS011;11729;50.836;4.330;2023-06-14T04:39:47;15.40;;;11.20;;
23119;SDS011;11729;50.836;4.330;2023-06-14T04:42:14;14.95;;;10.73;;
23119;SDS011;11729;50.836;4.330;2023-06-14T04:44:41;17.23;;;10.77;;
23119;SDS011;11729;50.836;4.330;2023-06-14T04:47:08;17.35;;;11.25;;
23119;SDS011;11729;50.836;4.330;2023-06-14T04:49:34;14.75;;;11.75;;
23119;SDS011;11729;50.836;4.330;2023-06-14T04:52:00;14.05;;;11.63;;
23119;SDS011;11729;50.836;4.330;2023-06-14T04:54:27;14.43;;;11.80;;
23119;SDS011;11729;50.836;4.330;2023-06-14T04:56:56;12.73;;;10.25;;
23119;SDS011;11729;50.836;4.330;2023-06-14T04:59:22;13.30;;;11.30;;
23119;SDS011;11729;50.836;4.330;2023-06-14T05:01:50;14.95;;;11.45;;
23119;SDS011;11729;50.836;4.330;2023-06-14T05:04:18;13.82;;;11.68;;
23119;SDS011;11729;50.836;4.330;2023-06-14T05:06:44;14.55;;;11.63;;
23119;SDS011;11729;50.836;4.330;2023-06-14T05:11:39;16.67;;;10.95;;
23119;SDS011;11729;50.836;4.330;2023-06-14T05:14:05;19.88;;;11.38;;
23119;SDS011;11729;50.836;4.330;2023-06-14T05:16:31;19.17;;;11.63;;
23119;SDS011;11729;50.836;4.330;2023-06-14T05:18:57;18.85;;;11.35;;
23119;SDS011;11729;50.836;4.330;2023-06-14T05:21:23;16.70;;;11.43;;
23119;SDS011;11729;50.836;4.330;2023-06-14T05:23:48;13.70;;;10.63;;
23119;SDS011;11729;50.836;4.330;2023-06-14T05:26:15;15.07;;;11.90;;
23119;SDS011;11729;50.836;4.330;2023-06-14T05:28:41;18.67;;;12.25;;
23119;SDS011;11729;50.836;4.330;2023-06-14T05:31:07;13.05;;;11.77;;
23119;SDS011;11729;50.836;4.330;2023-06-14T05:33:32;18.08;;;11.20;;
23119;SDS011;11729;50.836;4.330;2023-06-14T05:35:58;13.95;;;11.18;;
23119;SDS011;11729;50.836;4.330;2023-06-14T05:38:24;19.23;;;11.25;;
23119;SDS011;11729;50.836;4.330;2023-06-14T05:40:50;15.40;;;11.48;;
23119;SDS011;11729;50.836;4.330;2023-06-14T05:43:16;18.17;;;11.15;;
23119;SDS011;11729;50.836;4.330;2023-06-14T05:45:41;19.55;;;11.05;;
23119;SDS011;11729;50.836;4.330;2023-06-14T05:48:07;20.77;;;11.07;;
23119;SDS011;11729;50.836;4.330;2023-06-14T05:50:32;19.30;;;11.50;;
23119;SDS011;11729;50.836;4.330;2023-06-14T05:52:58;31.20;;;14.00;;
23119;SDS011;11729;50.836;4.330;2023-06-14T05:55:24;21.58;;;13.35;;
23119;SDS011;11729;50.836;4.330;2023-06-14T05:57:50;33.25;;;17.33;;
23119;SDS011;11729;50.836;4.330;2023-06-14T06:00:15;45.08;;;19.05;;
23119;SDS011;11729;50.836;4.330;2023-06-14T06:02:45;30.40;;;17.65;;
23119;SDS011;11729;50.836;4.330;2023-06-14T06:05:13;25.42;;;13.05;;
23119;SDS011;11729;50.836;4.330;2023-06-14T06:07:40;15.70;;;11.10;;
23119;SDS011;11729;50.836;4.330;2023-06-14T06:10:06;19.35;;;10.50;;
23119;SDS011;11729;50.836;4.330;2023-06-14T06:12:32;12.13;;;9.57;;
23119;SDS011;11729;50.836;4.330;2023-06-14T06:14:59;24.33;;;10.35;;
23119;SDS011;11729;50.836;4.330;2023-06-14T06:17:25;17.20;;;10.02;;
23119;SDS011;11729;50.836;4.330;2023-06-14T06:19:51;24.27;;;10.30;;
23119;SDS011;11729;50.836;4.330;2023-06-14T06:22:16;14.45;;;9.65;;
23119;SDS011;11729;50.836;4.330;2023-06-14T06:24:42;19.10;;;10.38;;
23119;SDS011;11729;50.836;4.330;2023-06-14T06:27:08;22.17;;;10.05;;
23119;SDS011;11729;50.836;4.330;2023-06-14T06:29:34;20.25;;;10.85;;
23119;SDS011;11729;50.836;4.330;2023-06-14T06:32:00;16.00;;;9.63;;
23119;SDS011;11729;50.836;4.330;2023-06-14T06:34:26;19.42;;;9.82;;
23119;SDS011;11729;50.836;4.330;2023-06-14T06:36:52;18.70;;;10.27;;
23119;SDS011;11729;50.836;4.330;2023-06-14T06:39:18;14.65;;;9.77;;
23119;SDS011;11729;50.836;4.330;2023-06-14T06:41:44;13.63;;;9.15;;
23119;SDS011;11729;50.836;4.330;2023-06-14T06:44:09;13.93;;;9.20;;
23119;SDS011;11729;50.836;4.330;2023-06-14T06:46:35;23.42;;;9.52;;
23119;SDS011;11729;50.836;4.330;2023-06-14T06:49:05;11.75;;;8.85;;
23119;SDS011;11729;50.836;4.330;2023-06-14T06:51:31;12.85;;;9.48;;
23119;SDS011;11729;50.836;4.330;2023-06-14T06:53:56;11.95;;;9.65;;
23119;SDS011;11729;50.836;4.330;2023-06-14T06:56:23;12.90;;;9.25;;
23119;SDS011;11729;50.836;4.330;2023-06-14T06:58:49;10.57;;;8.45;;
23119;SDS011;11729;50.836;4.330;2023-06-14T07:01:15;12.48;;;9.18;;
23119;SDS011;11729;50.836;4.330;2023-06-14T07:03:42;13.18;;;9.02;;
23119;SDS011;11729;50.836;4.330;2023-06-14T07:06:08;14.60;;;9.15;;
23119;SDS011;11729;50.836;4.330;2023-06-14T07:08:33;11.30;;;9.10;;
23119;SDS011;11729;50.836;4.330;2023-06-14T07:10:59;16.25;;;9.35;;
23119;SDS011;11729;50.836;4.330;2023-06-14T07:13:25;13.50;;;9.00;;
23119;SDS011;11729;50.836;4.330;2023-06-14T07:15:50;14.15;;;8.35;;
23119;SDS011;11729;50.836;4.330;2023-06-14T07:18:20;12.15;;;8.48;;
23119;SDS011;11729;50.836;4.330;2023-06-14T07:20:45;12.10;;;8.77;;
23119;SDS011;11729;50.836;4.330;2023-06-14T07:23:12;11.43;;;8.77;;
23119;SDS011;11729;50.836;4.330;2023-06-14T07:25:38;13.80;;;8.73;;
23119;SDS011;11729;50.836;4.330;2023-06-14T07:28:03;11.73;;;7.97;;
23119;SDS011;11729;50.836;4.330;2023-06-14T07:30:29;12.18;;;7.97;;
23119;SDS011;11729;50.836;4.330;2023-06-14T07:32:55;12.43;;;8.80;;
23119;SDS011;11729;50.836;4.330;2023-06-14T07:35:21;13.63;;;8.68;;
23119;SDS011;11729;50.836;4.330;2023-06-14T07:37:46;15.75;;;7.63;;
23119;SDS011;11729;50.836;4.330;2023-06-14T07:40:12;17.45;;;8.80;;
23119;SDS011;11729;50.836;4.330;2023-06-14T07:42:38;11.45;;;7.72;;
23119;SDS011;11729;50.836;4.330;2023-06-14T07:45:04;9.15;;;7.93;;
23119;SDS011;11729;50.836;4.330;2023-06-14T07:47:30;10.05;;;8.13;;
23119;SDS011;11729;50.836;4.330;2023-06-14T07:49:56;13.82;;;8.20;;
23119;SDS011;11729;50.836;4.330;2023-06-14T07:52:22;13.07;;;8.00;;
23119;SDS011;11729;50.836;4.330;2023-06-14T07:54:47;17.20;;;8.55;;
23119;SDS011;11729;50.836;4.330;2023-06-14T07:57:13;13.20;;;7.75;;
23119;SDS011;11729;50.836;4.330;2023-06-14T07:59:39;18.55;;;8.38;;
23119;SDS011;11729;50.836;4.330;2023-06-14T08:02:04;11.02;;;8.35;;
23119;SDS011;11729;50.836;4.330;2023-06-14T08:04:31;13.30;;;8.07;;
23119;SDS011;11729;50.836;4.330;2023-06-14T08:06:58;16.58;;;8.45;;
23119;SDS011;11729;50.836;4.330;2023-06-14T08:11:50;15.93;;;8.70;;
23119;SDS011;11729;50.836;4.330;2023-06-14T08:14:15;13.93;;;8.33;;
23119;SDS011;11729;50.836;4.330;2023-06-14T08:16:41;15.83;;;8.63;;
23119;SDS011;11729;50.836;4.330;2023-06-14T08:19:07;11.83;;;7.80;;
23119;SDS011;11729;50.836;4.330;2023-06-14T08:21:34;10.03;;;7.97;;
23119;SDS011;11729;50.836;4.330;2023-06-14T08:24:01;14.55;;;7.85;;
23119;SDS011;11729;50.836;4.330;2023-06-14T08:26:27;13.02;;;8.50;;
23119;SDS011;11729;50.836;4.330;2023-06-14T08:28:54;10.20;;;7.82;;
23119;SDS011;11729;50.836;4.330;2023-06-14T08:31:20;12.43;;;7.88;;
23119;SDS011;11729;50.836;4.330;2023-06-14T08:33:46;9.13;;;7.68;;
23119;SDS011;11729;50.836;4.330;2023-06-14T08:36:11;9.13;;;7.10;;
23119;SDS011;11729;50.836;4.330;2023-06-14T08:38:37;10.67;;;7.50;;
23119;SDS011;11729;50.836;4.330;2023-06-14T08:41:04;16.60;;;7.80;;
23119;SDS011;11729;50.836;4.330;2023-06-14T08:43:33;11.00;;;8.45;;
23119;SDS011;11729;50.836;4.330;2023-06-14T08:46:00;15.63;;;8.18;;
23119;SDS011;11729;50.836;4.330;2023-06-14T08:48:28;16.77;;;8.48;;
23119;SDS011;11729;50.836;4.330;2023-06-14T08:50:57;15.02;;;8.38;;
23119;SDS011;11729;50.836;4.330;2023-06-14T08:53:31;12.90;;;7.63;;
23119;SDS011;11729;50.836;4.330;2023-06-14T08:55:59;12.60;;;7.57;;
23119;SDS011;11729;50.836;4.330;2023-06-14T08:58:27;12.70;;;7.88;;
23119;SDS011;11729;50.836;4.330;2023-06-14T09:00:56;13.50;;;7.93;;
23119;SDS011;11729;50.836;4.330;2023-06-14T09:03:23;10.52;;;7.93;;
23119;SDS011;11729;50.836;4.330;2023-06-14T09:05:57;15.55;;;8.63;;
23119;SDS011;11729;50.836;4.330;2023-06-14T09:08:26;10.75;;;8.18;;
23119;SDS011;11729;50.836;4.330;2023-06-14T09:10:55;16.92;;;8.32;;
23119;SDS011;11729;50.836;4.330;2023-06-14T09:13:21;10.90;;;8.60;;
23119;SDS011;11729;50.836;4.330;2023-06-14T09:15:47;11.60;;;7.95;;
23119;SDS011;11729;50.836;4.330;2023-06-14T09:18:12;10.75;;;8.15;;
23119;SDS011;11729;50.836;4.330;2023-06-14T09:20:38;14.68;;;8.50;;
23119;SDS011;11729;50.836;4.330;2023-06-14T09:23:04;12.23;;;8.85;;
23119;SDS011;11729;50.836;4.330;2023-06-14T09:25:30;16.13;;;8.52;;
23119;SDS011;11729;50.836;4.330;2023-06-14T09:27:56;11.82;;;8.52;;
23119;SDS011;11729;50.836;4.330;2023-06-14T09:30:21;12.55;;;7.85;;
23119;SDS011;11729;50.836;4.330;2023-06-14T09:32:47;18.88;;;8.30;;
23119;SDS011;11729;50.836;4.330;2023-06-14T09:35:14;12.23;;;7.93;;
23119;SDS011;11729;50.836;4.330;2023-06-14T09:37:43;12.80;;;8.55;;
23119;SDS011;11729;50.836;4.330;2023-06-14T09:40:09;16.75;;;7.70;;
23119;SDS011;11729;50.836;4.330;2023-06-14T09:42:36;8.75;;;7.82;;
23119;SDS011;11729;50.836;4.330;2023-06-14T09:45:03;21.52;;;8.50;;
23119;SDS011;11729;50.836;4.330;2023-06-14T09:47:29;10.52;;;8.40;;
23119;SDS011;11729;50.836;4.330;2023-06-14T09:49:55;16.27;;;7.85;;
23119;SDS011;11729;50.836;4.330;2023-06-14T09:52:21;12.05;;;7.80;;
23119;SDS011;11729;50.836;4.330;2023-06-14T09:54:48;12.65;;;9.02;;
23119;SDS011;11729;50.836;4.330;2023-06-14T09:57:16;8.67;;;7.77;;
23119;SDS011;11729;50.836;4.330;2023-06-14T09:59:45;11.55;;;8.85;;
23119;SDS011;11729;50.836;4.330;2023-06-14T10:02:28;14.93;;;7.82;;
23119;SDS011;11729;50.836;4.330;2023-06-14T10:05:04;17.25;;;7.65;;
23119;SDS011;11729;50.836;4.330;2023-06-14T10:07:35;12.18;;;7.95;;
23119;SDS011;11729;50.836;4.330;2023-06-14T10:10:05;12.43;;;7.90;;
23119;SDS011;11729;50.836;4.330;2023-06-14T10:12:32;11.15;;;7.82;;
23119;SDS011;11729;50.836;4.330;2023-06-14T10:14:57;15.18;;;8.15;;
23119;SDS011;11729;50.836;4.330;2023-06-14T10:20:42;8.35;;;7.45;;
23119;SDS011;11729;50.836;4.330;2023-06-14T10:23:18;10.48;;;7.60;;
23119;SDS011;11729;50.836;4.330;2023-06-14T10:25:50;11.40;;;7.38;;
23119;SDS011;11729;50.836;4.330;2023-06-14T10:28:21;8.38;;;7.57;;
23119;SDS011;11729;50.836;4.330;2023-06-14T10:33:36;11.32;;;7.45;;
23119;SDS011;11729;50.836;4.330;2023-06-14T10:39:10;12.13;;;7.82;;
23119;SDS011;11729;50.836;4.330;2023-06-14T10:41:40;15.68;;;7.68;;
23119;SDS011;11729;50.836;4.330;2023-06-14T10:46:38;8.35;;;7.10;;
23119;SDS011;11729;50.836;4.330;2023-06-14T10:49:17;10.13;;;7.57;;
23119;SDS011;11729;50.836;4.330;2023-06-14T10:52:03;8.75;;;7.95;;
23119;SDS011;11729;50.836;4.330;2023-06-14T10:54:31;11.70;;;7.68;;
23119;SDS011;11729;50.836;4.330;2023-06-14T10:56:57;12.07;;;7.65;;
23119;SDS011;11729;50.836;4.330;2023-06-14T11:01:57;9.47;;;7.57;;
23119;SDS011;11729;50.836;4.330;2023-06-14T11:04:47;8.65;;;7.75;;
23119;SDS011;11729;50.836;4.330;2023-06-14T11:10:10;9.82;;;7.65;;
23119;SDS011;11729;50.836;4.330;2023-06-14T11:12:56;9.30;;;7.20;;
23119;SDS011;11729;50.836;4.330;2023-06-14T11:15:31;14.35;;;7.50;;
23119;SDS011;11729;50.836;4.330;2023-06-14T11:18:00;11.63;;;7.90;;
23119;SDS011;11729;50.836;4.330;2023-06-14T11:20:29;11.05;;;7.32;;
23119;SDS011;11729;50.836;4.330;2023-06-14T11:22:56;13.15;;;7.40;;
23119;SDS011;11729;50.836;4.330;2023-06-14T11:25:21;10.95;;;7.25;;
23119;SDS011;11729;50.836;4.330;2023-06-14T11:27:48;10.60;;;7.15;;
23119;SDS011;11729;50.836;4.330;2023-06-14T11:30:15;12.07;;;7.65;;
23119;SDS011;11729;50.836;4.330;2023-06-14T11:32:41;11.80;;;7.35;;
23119;SDS011;11729;50.836;4.330;2023-06-14T11:35:07;10.95;;;7.30;;
23119;SDS011;11729;50.836;4.330;2023-06-14T11:37:35;9.57;;;7.13;;
23119;SDS011;11729;50.836;4.330;2023-06-14T11:40:02;12.13;;;7.82;;
23119;SDS011;11729;50.836;4.330;2023-06-14T11:42:32;12.77;;;6.97;;
23119;SDS011;11729;50.836;4.330;2023-06-14T11:44:59;12.85;;;7.53;;
23119;SDS011;11729;50.836;4.330;2023-06-14T11:47:24;13.30;;;7.63;;
23119;SDS011;11729;50.836;4.330;2023-06-14T11:49:58;13.48;;;7.22;;
23119;SDS011;11729;50.836;4.330;2023-06-14T11:52:27;7.85;;;6.40;;
23119;SDS011;11729;50.836;4.330;2023-06-14T11:54:53;12.45;;;7.78;;
23119;SDS011;11729;50.836;4.330;2023-06-14T11:57:19;11.98;;;6.93;;
23119;SDS011;11729;50.836;4.330;2023-06-14T11:59:45;11.40;;;6.90;;
23119;SDS011;11729;50.836;4.330;2023-06-14T12:02:19;10.90;;;7.63;;
23119;SDS011;11729;50.836;4.330;2023-06-14T12:04:47;10.65;;;7.32;;
23119;SDS011;11729;50.836;4.330;2023-06-14T12:07:16;17.40;;;7.70;;
23119;SDS011;11729;50.836;4.330;2023-06-14T12:12:25;9.23;;;7.53;;
23119;SDS011;11729;50.836;4.330;2023-06-14T12:14:52;9.27;;;6.65;;
23119;SDS011;11729;50.836;4.330;2023-06-14T12:17:18;9.88;;;7.15;;
23119;SDS011;11729;50.836;4.330;2023-06-14T12:19:48;8.55;;;6.57;;
23119;SDS011;11729;50.836;4.330;2023-06-14T12:22:15;8.30;;;6.72;;
23119;SDS011;11729;50.836;4.330;2023-06-14T12:24:45;9.25;;;7.15;;
23119;SDS011;11729;50.836;4.330;2023-06-14T12:27:11;10.27;;;6.55;;
23119;SDS011;11729;50.836;4.330;2023-06-14T12:29:40;11.20;;;6.97;;
23119;SDS011;11729;50.836;4.330;2023-06-14T12:32:08;14.45;;;8.18;;
23119;SDS011;11729;50.836;4.330;2023-06-14T12:34:34;16.30;;;6.97;;
23119;SDS011;11729;50.836;4.330;2023-06-14T12:37:06;9.90;;;6.60;;
23119;SDS011;11729;50.836;4.330;2023-06-14T12:39:31;10.75;;;6.95;;
23119;SDS011;11729;50.836;4.330;2023-06-14T12:41:57;11.18;;;6.47;;
23119;SDS011;11729;50.836;4.330;2023-06-14T12:44:24;9.45;;;6.53;;
23119;SDS011;11729;50.836;4.330;2023-06-14T12:46:50;11.02;;;6.85;;
23119;SDS011;11729;50.836;4.330;2023-06-14T12:49:18;7.28;;;6.55;;
23119;SDS011;11729;50.836;4.330;2023-06-14T12:51:45;11.43;;;6.90;;
23119;SDS011;11729;50.836;4.330;2023-06-14T12:54:11;15.70;;;6.95;;
23119;SDS011;11729;50.836;4.330;2023-06-14T12:56:40;13.18;;;7.10;;
23119;SDS011;11729;50.836;4.330;2023-06-14T12:59:07;8.88;;;6.15;;
23119;SDS011;11729;50.836;4.330;2023-06-14T13:01:33;12.38;;;7.10;;
23119;SDS011;11729;50.836;4.330;2023-06-14T13:03:58;10.45;;;6.43;;
23119;SDS011;11729;50.836;4.330;2023-06-14T13:06:24;14.75;;;6.78;;
23119;SDS011;11729;50.836;4.330;2023-06-14T13:08:50;9.05;;;6.50;;
23119;SDS011;11729;50.836;4.330;2023-06-14T13:11:16;7.70;;;6.93;;
23119;SDS011;11729;50.836;4.330;2023-06-14T13:13:41;12.45;;;7.13;;
23119;SDS011;11729;50.836;4.330;2023-06-14T13:16:07;13.25;;;6.38;;
23119;SDS011;11729;50.836;4.330;2023-06-14T13:18:33;12.15;;;6.95;;
23119;SDS011;11729;50.836;4.330;2023-06-14T13:20:58;13.73;;;8.82;;
23119;SDS011;11729;50.836;4.330;2023-06-14T13:23:24;9.32;;;6.60;;
23119;SDS011;11729;50.836;4.330;2023-06-14T13:25:49;10.13;;;6.68;;
23119;SDS011;11729;50.836;4.330;2023-06-14T13:28:16;7.55;;;6.07;;
23119;SDS011;11729;50.836;4.330;2023-06-14T13:30:43;8.52;;;6.35;;
23119;SDS011;11729;50.836;4.330;2023-06-14T13:33:08;9.00;;;6.25;;
23119;SDS011;11729;50.836;4.330;2023-06-14T13:35:37;9.35;;;6.38;;
23119;SDS011;11729;50.836;4.330;2023-06-14T13:38:06;11.93;;;6.32;;
23119;SDS011;11729;50.836;4.330;2023-06-14T13:40:33;13.88;;;6.28;;
23119;SDS011;11729;50.836;4.330;2023-06-14T13:42:58;9.43;;;6.20;;
23119;SDS011;11729;50.836;4.330;2023-06-14T13:45:24;11.57;;;6.47;;
23119;SDS011;11729;50.836;4.330;2023-06-14T13:47:53;9.48;;;6.10;;
23119;SDS011;11729;50.836;4.330;2023-06-14T13:50:19;8.77;;;6.55;;
23119;SDS011;11729;50.836;4.330;2023-06-14T13:52:45;10.10;;;6.50;;
23119;SDS011;11729;50.836;4.330;2023-06-14T13:55:11;6.72;;;5.93;;
23119;SDS011;11729;50.836;4.330;2023-06-14T13:57:36;13.85;;;7.18;;
23119;SDS011;11729;50.836;4.330;2023-06-14T14:00:02;8.98;;;6.82;;
23119;SDS011;11729;50.836;4.330;2023-06-14T14:02:29;9.13;;;6.10;;
23119;SDS011;11729;50.836;4.330;2023-06-14T14:04:55;10.50;;;6.33;;
23119;SDS011;11729;50.836;4.330;2023-06-14T14:07:22;9.57;;;5.93;;
23119;SDS011;11729;50.836;4.330;2023-06-14T14:09:48;11.13;;;5.97;;
23119;SDS011;11729;50.836;4.330;2023-06-14T14:12:14;11.02;;;5.65;;
23119;SDS011;11729;50.836;4.330;2023-06-14T14:14:42;9.68;;;6.00;;
23119;SDS011;11729;50.836;4.330;2023-06-14T14:17:08;7.53;;;6.00;;
23119;SDS011;11729;50.836;4.330;2023-06-14T14:19:36;8.60;;;6.38;;
23119;SDS011;11729;50.836;4.330;2023-06-14T14:22:02;10.07;;;5.82;;
23119;SDS011;11729;50.836;4.330;2023-06-14T14:24:28;6.50;;;5.47;;
23119;SDS011;11729;50.836;4.330;2023-06-14T14:26:54;12.93;;;5.70;;
23119;SDS011;11729;50.836;4.330;2023-06-14T14:29:22;5.85;;;5.32;;
23119;SDS011;11729;50.836;4.330;2023-06-14T14:31:48;6.30;;;5.47;;
23119;SDS011;11729;50.836;4.330;2023-06-14T14:34:13;7.63;;;5.07;;
23119;SDS011;11729;50.836;4.330;2023-06-14T14:36:39;5.38;;;4.95;;
23119;SDS011;11729;50.836;4.330;2023-06-14T14:39:07;6.03;;;5.05;;
23119;SDS011;11729;50.836;4.330;2023-06-14T14:41:33;8.15;;;5.10;;
23119;SDS011;11729;50.836;4.330;2023-06-14T14:43:59;13.18;;;5.25;;
23119;SDS011;11729;50.836;4.330;2023-06-14T14:46:26;5.32;;;4.93;;
23119;SDS011;11729;50.836;4.330;2023-06-14T14:48:52;6.15;;;5.55;;
23119;SDS011;11729;50.836;4.330;2023-06-14T14:51:18;6.05;;;5.13;;
23119;SDS011;11729;50.836;4.330;2023-06-14T14:53:44;14.10;;;5.28;;
23119;SDS011;11729;50.836;4.330;2023-06-14T14:56:10;5.15;;;4.55;;
23119;SDS011;11729;50.836;4.330;2023-06-14T14:58:37;8.40;;;5.03;;
23119;SDS011;11729;50.836;4.330;2023-06-14T15:01:03;4.88;;;4.47;;
23119;SDS011;11729;50.836;4.330;2023-06-14T15:05:56;8.52;;;4.68;;
23119;SDS011;11729;50.836;4.330;2023-06-14T15:08:22;11.80;;;4.65;;